createdAt,value
2022-12-09T00:00:42.628Z,42.40
2022-12-09T00:03:17.848Z,34.70
2022-12-09T00:05:49.934Z,60.70
2022-12-09T00:08:16.393Z,51.00
2022-12-09T00:10:44.308Z,34.20
2022-12-09T00:13:10.834Z,31.50
2022-12-09T00:15:41.899Z,30.70
2022-12-09T00:18:09.054Z,25.90
2022-12-09T00:20:35.810Z,28.50
2022-12-09T00:23:02.699Z,32.30
2022-12-09T00:25:29.161Z,24.00
2022-12-09T00:27:56.351Z,30.10
2022-12-09T00:30:22.973Z,27.90
2022-12-09T00:32:49.425Z,32.80
2022-12-09T00:35:15.818Z,30.70
2022-12-09T00:37:42.176Z,21.40
2022-12-09T00:40:09.361Z,27.20
2022-12-09T00:42:36.412Z,28.40
2022-12-09T00:45:02.982Z,26.50
2022-12-09T00:47:29.327Z,27.60
2022-12-09T00:49:55.818Z,31.30
2022-12-09T00:52:22.474Z,28.80
2022-12-09T00:54:48.912Z,27.40
2022-12-09T00:57:15.319Z,27.10
2022-12-09T00:59:41.836Z,21.20
2022-12-09T01:02:08.381Z,23.80
2022-12-09T01:04:35.927Z,25.90
2022-12-09T01:07:02.602Z,23.30
2022-12-09T01:09:29.755Z,24.10
2022-12-09T01:11:56.245Z,22.60
2022-12-09T01:14:22.711Z,23.10
2022-12-09T01:16:49.288Z,19.70
2022-12-09T01:19:16.186Z,22.60
2022-12-09T01:21:42.713Z,23.80
2022-12-09T01:24:10.252Z,19.80
2022-12-09T01:26:37.675Z,22.70
2022-12-09T01:29:04.294Z,21.10
2022-12-09T01:31:30.905Z,24.10
2022-12-09T01:33:57.511Z,21.30
2022-12-09T01:36:26.964Z,21.40
2022-12-09T01:38:53.777Z,23.90
2022-12-09T01:41:21.344Z,22.80
2022-12-09T01:44:06.989Z,24.10
2022-12-09T01:46:33.593Z,23.70
2022-12-09T01:49:00.541Z,26.10
2022-12-09T01:51:27.320Z,22.80
2022-12-09T01:53:55.456Z,31.90
2022-12-09T01:56:24.198Z,25.40
2022-12-09T01:58:51.585Z,33.50
2022-12-09T02:01:18.337Z,24.40
2022-12-09T02:03:44.877Z,23.70
2022-12-09T02:06:11.701Z,27.60
2022-12-09T02:08:39.502Z,21.20
2022-12-09T02:11:25.539Z,26.10
2022-12-09T02:14:08.879Z,30.50
2022-12-09T02:16:49.347Z,25.30
2022-12-09T02:19:31.858Z,25.50
2022-12-09T02:21:59.418Z,26.60
2022-12-09T02:24:36.164Z,23.40
2022-12-09T02:27:21.973Z,32.00
2022-12-09T02:29:48.408Z,25.80
2022-12-09T02:32:18.564Z,30.50
2022-12-09T02:34:51.060Z,25.40
2022-12-09T02:37:20.283Z,25.90
2022-12-09T02:39:56.149Z,26.70
2022-12-09T02:42:26.074Z,25.80
2022-12-09T02:44:52.830Z,25.30
2022-12-09T02:47:22.482Z,28.00
2022-12-09T02:49:54.183Z,24.20
2022-12-09T02:52:22.013Z,26.70
2022-12-09T02:54:49.469Z,22.90
2022-12-09T02:57:17.847Z,26.20
2022-12-09T02:59:44.700Z,26.20
2022-12-09T03:02:19.858Z,25.30
2022-12-09T03:05:16.202Z,26.80
2022-12-09T03:07:56.065Z,25.70
2022-12-09T03:10:27.638Z,25.70
2022-12-09T03:12:59.348Z,21.80
2022-12-09T03:15:27.119Z,20.10
2022-12-09T03:17:55.120Z,24.10
2022-12-09T03:20:23.950Z,27.00
2022-12-09T03:22:55.524Z,24.80
2022-12-09T03:25:24.539Z,29.60
2022-12-09T03:28:05.324Z,28.70
2022-12-09T03:30:34.582Z,29.80
2022-12-09T03:33:02.448Z,27.00
2022-12-09T03:35:31.452Z,24.60
2022-12-09T03:37:58.277Z,25.90
2022-12-09T03:40:27.785Z,26.50
2022-12-09T03:42:56.622Z,25.60
2022-12-09T03:45:24.271Z,25.50
2022-12-09T03:47:51.366Z,21.30
2022-12-09T03:50:18.157Z,26.40
2022-12-09T03:52:47.183Z,24.20
2022-12-09T03:55:32.203Z,23.60
2022-12-09T03:57:59.759Z,26.20
2022-12-09T04:00:26.996Z,25.80
2022-12-09T04:02:53.774Z,28.20
2022-12-09T04:05:20.328Z,28.20
2022-12-09T04:07:47.034Z,22.30
2022-12-09T04:10:13.602Z,21.20
2022-12-09T04:12:40.368Z,21.90
2022-12-09T04:15:07.399Z,18.90
2022-12-09T04:17:33.936Z,24.70
2022-12-09T04:20:00.721Z,29.60
2022-12-09T04:22:27.521Z,30.30
2022-12-09T04:24:54.208Z,25.60
2022-12-09T04:27:20.665Z,29.20
2022-12-09T04:29:47.058Z,44.90
2022-12-09T04:32:13.528Z,36.20
2022-12-09T04:34:40.154Z,29.60
2022-12-09T04:37:06.643Z,29.90
2022-12-09T04:39:33.050Z,28.80
2022-12-09T04:41:59.404Z,32.60
2022-12-09T04:44:25.997Z,32.40
2022-12-09T04:46:52.662Z,31.00
2022-12-09T04:49:19.287Z,27.10
2022-12-09T04:51:47.050Z,29.10
2022-12-09T04:54:13.798Z,30.00
2022-12-09T04:56:40.981Z,27.40
2022-12-09T04:59:07.937Z,25.10
2022-12-09T05:01:34.612Z,23.30
2022-12-09T05:04:01.546Z,42.60
2022-12-09T05:06:29.192Z,417.90
2022-12-09T05:08:56.154Z,224.70
2022-12-09T05:11:23.778Z,175.40
2022-12-09T05:13:50.948Z,154.40
2022-12-09T05:16:19.277Z,153.30
2022-12-09T05:18:46.625Z,112.70
2022-12-09T05:21:15.170Z,89.10
2022-12-09T05:23:42.364Z,63.50
2022-12-09T05:26:12.546Z,48.20
2022-12-09T05:28:39.063Z,39.50
2022-12-09T05:31:07.095Z,44.90
2022-12-09T05:33:34.359Z,43.80
2022-12-09T05:36:01.219Z,38.90
2022-12-09T05:38:28.255Z,32.60
2022-12-09T05:40:54.756Z,62.90
2022-12-09T05:43:21.197Z,36.40
2022-12-09T05:45:47.880Z,26.60
2022-12-09T05:48:14.315Z,29.00
2022-12-09T05:50:41.232Z,43.90
2022-12-09T05:53:07.868Z,33.30
2022-12-09T05:55:34.359Z,64.70
2022-12-09T05:58:00.976Z,46.10
2022-12-09T06:00:27.960Z,43.70
2022-12-09T06:02:54.639Z,35.90
2022-12-09T06:05:21.962Z,33.40
2022-12-09T06:07:48.878Z,49.40
2022-12-09T06:10:16.232Z,42.70
2022-12-09T06:12:43.189Z,38.80
2022-12-09T06:15:10.894Z,26.70
2022-12-09T06:17:38.756Z,35.00
2022-12-09T06:20:06.875Z,36.70
2022-12-09T06:22:34.518Z,34.30
2022-12-09T06:25:01.273Z,27.40
2022-12-09T06:27:27.584Z,31.70
2022-12-09T06:29:54.115Z,31.80
2022-12-09T06:32:21.038Z,33.70
2022-12-09T06:34:47.902Z,27.30
2022-12-09T06:37:15.016Z,29.90
2022-12-09T06:39:41.843Z,28.40
2022-12-09T06:42:08.467Z,29.80
2022-12-09T06:44:35.364Z,32.50
2022-12-09T06:47:01.921Z,29.70
2022-12-09T06:49:28.584Z,30.00
2022-12-09T06:51:55.210Z,32.00
2022-12-09T06:54:21.830Z,28.50
2022-12-09T06:56:48.493Z,33.80
2022-12-09T06:59:15.098Z,39.00
2022-12-09T07:01:41.899Z,56.80
2022-12-09T07:04:10.424Z,73.40
2022-12-09T07:06:38.575Z,80.40
2022-12-09T07:09:07.289Z,105.10
2022-12-09T07:11:35.133Z,84.00
2022-12-09T07:14:02.081Z,86.60
2022-12-09T07:16:29.215Z,79.10
2022-12-09T07:18:56.474Z,62.60
2022-12-09T07:21:23.941Z,63.40
2022-12-09T07:23:51.209Z,62.60
2022-12-09T07:26:18.761Z,57.70
2022-12-09T07:28:50.177Z,54.50
2022-12-09T07:31:21.452Z,53.60
2022-12-09T07:33:48.375Z,52.20
2022-12-09T07:36:20.731Z,39.50
2022-12-09T07:38:48.308Z,42.40
2022-12-09T07:41:17.694Z,53.80
2022-12-09T07:43:45.127Z,56.60
2022-12-09T07:46:12.839Z,51.00
2022-12-09T07:48:39.492Z,55.90
2022-12-09T07:51:06.678Z,56.50
2022-12-09T07:53:34.569Z,53.10
2022-12-09T07:56:05.266Z,57.20
2022-12-09T07:58:32.794Z,89.60
2022-12-09T08:01:06.487Z,44.80
2022-12-09T08:03:34.136Z,60.40
2022-12-09T08:06:01.322Z,61.30
2022-12-09T08:08:28.344Z,59.80
2022-12-09T08:10:55.417Z,56.20
2022-12-09T08:13:22.313Z,63.40
2022-12-09T08:15:48.816Z,61.90
2022-12-09T08:18:16.518Z,76.90
2022-12-09T08:20:43.175Z,103.60
2022-12-09T08:23:10.401Z,58.00
2022-12-09T08:25:37.438Z,51.20
2022-12-09T08:28:04.115Z,32.20
2022-12-09T08:30:30.875Z,34.00
2022-12-09T08:32:58.103Z,28.50
2022-12-09T08:35:26.880Z,31.30
2022-12-09T08:37:53.400Z,22.60
2022-12-09T08:40:19.872Z,26.80
2022-12-09T08:42:46.379Z,25.30
2022-12-09T08:45:13.180Z,25.90
2022-12-09T08:47:39.565Z,22.60
2022-12-09T08:50:07.036Z,21.40
2022-12-09T08:52:40.094Z,23.90
2022-12-09T08:55:07.771Z,27.70
2022-12-09T08:57:34.509Z,20.40
2022-12-09T09:00:01.950Z,25.60
2022-12-09T09:02:28.522Z,18.30
2022-12-09T09:04:56.692Z,23.60
2022-12-09T09:07:23.742Z,16.90
2022-12-09T09:09:50.501Z,19.30
2022-12-09T09:12:17.432Z,18.60
2022-12-09T09:14:44.007Z,23.00
2022-12-09T09:17:10.552Z,18.30
2022-12-09T09:19:37.556Z,18.20
2022-12-09T09:22:04.401Z,18.10
2022-12-09T09:24:31.387Z,18.80
2022-12-09T09:26:58.163Z,17.20
2022-12-09T09:29:24.757Z,18.90
2022-12-09T09:31:53.509Z,17.00
2022-12-09T09:34:21.471Z,23.70
2022-12-09T09:36:48.472Z,41.70
2022-12-09T09:39:15.291Z,26.90
2022-12-09T09:41:44.510Z,26.60
2022-12-09T09:44:20.556Z,39.60
2022-12-09T09:46:47.957Z,21.00
2022-12-09T09:49:20.643Z,23.20
2022-12-09T09:51:47.721Z,18.20
2022-12-09T09:54:14.750Z,19.00
2022-12-09T09:56:53.819Z,18.90
2022-12-09T09:59:23.753Z,18.70
2022-12-09T10:01:56.362Z,22.20
2022-12-09T10:04:28.748Z,17.40
2022-12-09T10:07:08.674Z,25.60
2022-12-09T10:09:36.058Z,42.30
2022-12-09T10:12:10.796Z,21.30
2022-12-09T10:14:43.958Z,20.50
2022-12-09T10:17:30.074Z,20.80
2022-12-09T10:20:02.723Z,25.70
2022-12-09T10:22:31.435Z,25.60
2022-12-09T10:24:59.850Z,23.40
2022-12-09T10:27:29.791Z,55.60
2022-12-09T10:30:09.320Z,38.50
2022-12-09T10:32:37.522Z,27.60
2022-12-09T10:35:13.296Z,23.80
2022-12-09T10:37:40.902Z,35.40
2022-12-09T10:40:07.899Z,32.70
2022-12-09T10:43:01.401Z,24.60
2022-12-09T10:45:45.596Z,26.70
2022-12-09T10:48:38.565Z,27.10
2022-12-09T10:51:09.823Z,28.70
2022-12-09T10:53:42.656Z,29.10
2022-12-09T10:56:09.241Z,26.90
2022-12-09T10:58:35.941Z,24.30
2022-12-09T11:01:08.039Z,25.60
2022-12-09T11:03:49.081Z,25.60
2022-12-09T11:06:22.105Z,23.80
2022-12-09T11:08:50.725Z,22.30
2022-12-09T11:11:17.330Z,19.40
2022-12-09T11:13:44.915Z,19.90
2022-12-09T11:16:11.806Z,25.30
2022-12-09T11:18:43.488Z,24.70
2022-12-09T11:21:28.895Z,25.50
2022-12-09T11:24:02.573Z,24.70
2022-12-09T11:26:35.170Z,27.50
2022-12-09T11:29:05.297Z,24.00
2022-12-09T11:31:33.979Z,26.20
2022-12-09T11:34:03.350Z,23.70
2022-12-09T11:36:42.277Z,26.50
2022-12-09T11:39:30.408Z,24.80
2022-12-09T11:42:24.099Z,26.70
2022-12-09T11:44:53.726Z,34.40
2022-12-09T11:47:22.291Z,25.10
2022-12-09T11:49:50.581Z,27.40
2022-12-09T11:52:16.997Z,29.20
2022-12-09T11:54:53.793Z,34.40
2022-12-09T11:57:42.890Z,31.60
2022-12-09T12:00:16.167Z,32.40
2022-12-09T12:02:48.994Z,35.50
2022-12-09T12:05:21.812Z,36.50
2022-12-09T12:08:07.275Z,30.20
2022-12-09T12:10:40.247Z,30.40
2022-12-09T12:13:18.379Z,38.60
2022-12-09T12:15:50.474Z,48.10
2022-12-09T12:18:21.645Z,50.40
2022-12-09T12:23:22.495Z,34.70
2022-12-09T12:26:07.276Z,26.60
2022-12-09T12:28:46.055Z,35.70
2022-12-09T12:31:31.542Z,30.60
2022-12-09T12:37:39.738Z,31.30
2022-12-09T12:40:10.732Z,42.20
2022-12-09T12:45:28.184Z,34.30
2022-12-09T12:48:16.339Z,40.50
2022-12-09T12:50:44.104Z,33.00
2022-12-09T12:53:11.780Z,37.60
2022-12-09T12:55:39.464Z,33.40
2022-12-09T12:58:26.095Z,39.90
2022-12-09T13:00:53.863Z,41.10
2022-12-09T13:03:21.667Z,41.60
2022-12-09T13:05:51.112Z,48.60
2022-12-09T13:08:26.554Z,35.10
2022-12-09T13:10:56.067Z,39.00
2022-12-09T13:13:27.192Z,33.20
2022-12-09T13:15:58.136Z,36.30
2022-12-09T13:18:29.058Z,46.60
2022-12-09T13:21:01.559Z,38.70
2022-12-09T13:23:38.497Z,40.20
2022-12-09T13:26:26.276Z,37.90
2022-12-09T13:28:59.726Z,40.00
2022-12-09T13:31:31.841Z,48.40
2022-12-09T13:33:59.537Z,40.70
2022-12-09T13:36:37.091Z,35.00
2022-12-09T13:39:04.961Z,43.40
2022-12-09T13:41:55.364Z,42.20
2022-12-09T13:44:25.619Z,47.70
2022-12-09T13:46:53.431Z,41.00
2022-12-09T13:49:23.620Z,40.40
2022-12-09T13:51:52.329Z,40.00
2022-12-09T13:54:24.044Z,44.10
2022-12-09T13:57:07.130Z,41.00
2022-12-09T13:59:39.780Z,38.10
2022-12-09T14:02:18.543Z,35.50
2022-12-09T14:04:50.744Z,40.40
2022-12-09T14:07:24.134Z,45.10
2022-12-09T14:09:54.509Z,55.00
2022-12-09T14:12:25.467Z,59.20
2022-12-09T14:14:53.975Z,40.60
2022-12-09T14:17:24.801Z,39.50
2022-12-09T14:20:11.367Z,34.10
2022-12-09T14:22:39.811Z,38.70
2022-12-09T14:25:39.928Z,49.10
2022-12-09T14:28:10.486Z,76.50
2022-12-09T14:30:52.726Z,87.80
2022-12-09T14:33:42.604Z,70.00
2022-12-09T14:36:13.078Z,63.00
2022-12-09T14:42:00.657Z,59.80
2022-12-09T14:44:31.512Z,60.30
2022-12-09T14:47:17.816Z,64.00
2022-12-09T14:49:49.065Z,59.90
2022-12-09T14:52:30.976Z,61.90
2022-12-09T14:55:00.456Z,62.90
2022-12-09T14:57:30.758Z,71.50
2022-12-09T14:59:58.544Z,57.20
2022-12-09T15:02:29.773Z,64.70
2022-12-09T15:05:00.245Z,68.70
2022-12-09T15:07:29.902Z,68.70
2022-12-09T15:09:57.589Z,53.60
2022-12-09T15:12:27.264Z,55.20
2022-12-09T15:15:15.801Z,53.10
2022-12-09T15:18:09.978Z,63.20
2022-12-09T15:20:39.121Z,75.80
2022-12-09T15:23:15.875Z,69.80
2022-12-09T15:26:03.500Z,63.40
2022-12-09T15:28:32.570Z,70.30
2022-12-09T15:31:05.621Z,73.00
2022-12-09T15:33:40.540Z,56.00
2022-12-09T15:36:17.389Z,56.10
2022-12-09T15:38:46.436Z,49.30
2022-12-09T15:41:33.359Z,51.90
2022-12-09T15:44:02.682Z,56.20
2022-12-09T15:46:32.052Z,59.30
2022-12-09T15:49:01.985Z,66.40
2022-12-09T15:51:30.317Z,61.70
2022-12-09T15:53:59.743Z,97.90
2022-12-09T15:56:33.982Z,126.90
2022-12-09T15:59:06.699Z,156.50
2022-12-09T16:01:34.727Z,194.50
2022-12-09T16:04:03.634Z,138.50
2022-12-09T16:06:34.280Z,122.60
2022-12-09T16:09:02.555Z,123.70
2022-12-09T16:11:39.440Z,137.60
2022-12-09T16:14:07.797Z,135.70
2022-12-09T16:16:54.008Z,102.80
2022-12-09T16:19:30.899Z,88.60
2022-12-09T16:22:00.043Z,90.30
2022-12-09T16:24:50.670Z,116.60
2022-12-09T16:27:19.224Z,130.00
2022-12-09T16:29:57.888Z,255.70
2022-12-09T16:32:31.544Z,387.50
2022-12-09T16:35:11.999Z,423.80
2022-12-09T16:37:40.982Z,308.60
2022-12-09T16:40:32.671Z,131.90
2022-12-09T16:43:15.514Z,95.40
2022-12-09T16:45:44.395Z,109.10
2022-12-09T16:48:13.443Z,100.40
2022-12-09T16:50:52.035Z,87.40
2022-12-09T16:53:21.433Z,78.30
2022-12-09T16:55:50.546Z,63.30
2022-12-09T16:58:18.269Z,59.70
2022-12-09T17:00:46.860Z,52.50
2022-12-09T17:03:18.580Z,57.10
2022-12-09T17:05:48.103Z,49.80
2022-12-09T17:08:16.010Z,55.60
2022-12-09T17:10:44.020Z,54.50
2022-12-09T17:13:12.517Z,58.90
2022-12-09T17:15:41.708Z,51.80
2022-12-09T17:18:10.139Z,38.30
2022-12-09T17:20:38.260Z,43.70
2022-12-09T17:23:06.083Z,51.40
2022-12-09T17:25:33.843Z,59.60
2022-12-09T17:28:05.497Z,54.00
2022-12-09T17:30:36.839Z,69.10
2022-12-09T17:33:04.600Z,77.30
2022-12-09T17:35:36.732Z,77.70
2022-12-09T17:38:04.541Z,79.40
2022-12-09T17:40:34.246Z,82.20
2022-12-09T17:43:01.897Z,75.00
2022-12-09T17:45:29.623Z,75.30
2022-12-09T17:47:57.354Z,63.30
2022-12-09T17:50:25.085Z,104.60
2022-12-09T17:52:52.902Z,88.00
2022-12-09T17:55:20.569Z,94.20
2022-12-09T17:57:53.927Z,96.70
2022-12-09T18:00:22.215Z,110.60
2022-12-09T18:02:49.877Z,125.70
2022-12-09T18:05:17.715Z,115.20
2022-12-09T18:07:45.468Z,116.10
2022-12-09T18:10:13.177Z,89.30
2022-12-09T18:12:41.241Z,75.10
2022-12-09T18:15:09.206Z,66.60
2022-12-09T18:17:37.010Z,64.40
2022-12-09T18:20:05.106Z,57.70
2022-12-09T18:22:33.394Z,50.90
2022-12-09T18:25:01.253Z,53.10
2022-12-09T18:27:29.600Z,59.40
2022-12-09T18:29:57.304Z,58.40
2022-12-09T18:32:24.985Z,46.10
2022-12-09T18:34:52.690Z,56.90
2022-12-09T18:37:20.512Z,51.60
2022-12-09T18:39:48.229Z,44.30
2022-12-09T18:42:15.888Z,45.40
2022-12-09T18:44:43.592Z,49.10
2022-12-09T18:47:11.328Z,49.30
2022-12-09T18:49:39.084Z,60.60
2022-12-09T18:52:06.891Z,46.70
2022-12-09T18:54:34.596Z,52.10
2022-12-09T18:57:03.541Z,52.10
2022-12-09T18:59:31.443Z,59.60
2022-12-09T19:01:59.516Z,46.60
2022-12-09T19:04:28.159Z,45.40
2022-12-09T19:07:00.142Z,47.50
2022-12-09T19:09:31.943Z,45.30
2022-12-09T19:12:16.560Z,50.00
2022-12-09T19:14:47.900Z,43.20
2022-12-09T19:17:15.735Z,48.70
2022-12-09T19:19:45.271Z,45.20
2022-12-09T19:22:13.139Z,45.50
2022-12-09T19:24:43.442Z,48.70
2022-12-09T19:27:12.031Z,45.00
2022-12-09T19:29:39.887Z,43.20
2022-12-09T19:32:23.562Z,44.70
2022-12-09T19:34:55.217Z,53.00
2022-12-09T19:37:22.892Z,54.00
2022-12-09T19:39:50.591Z,41.30
2022-12-09T19:42:19.199Z,53.10
2022-12-09T19:45:06.436Z,52.10
2022-12-09T19:47:35.906Z,41.80
2022-12-09T19:50:04.129Z,55.60
2022-12-09T19:52:31.839Z,50.80
2022-12-09T19:54:59.485Z,53.00
2022-12-09T19:57:27.213Z,57.70
2022-12-09T19:59:55.207Z,54.30
2022-12-09T20:02:23.000Z,47.00
2022-12-09T20:04:51.296Z,54.40
2022-12-09T20:07:19.906Z,57.00
2022-12-09T20:09:47.938Z,55.20
2022-12-09T20:12:16.119Z,54.00
2022-12-09T20:14:44.231Z,49.10
2022-12-09T20:17:11.960Z,63.60
2022-12-09T20:19:39.719Z,55.20
2022-12-09T20:22:07.387Z,51.50
2022-12-09T20:24:35.006Z,52.60
2022-12-09T20:27:02.791Z,57.60
2022-12-09T20:29:37.029Z,50.40
2022-12-09T20:32:06.026Z,61.50
2022-12-09T20:37:50.118Z,52.00
2022-12-09T20:40:18.094Z,69.30
2022-12-09T20:42:46.199Z,75.50
2022-12-09T20:45:13.872Z,89.90
2022-12-09T20:47:41.554Z,59.80
2022-12-09T20:50:09.668Z,65.10
2022-12-09T20:52:37.655Z,65.10
2022-12-09T20:55:06.168Z,57.80
2022-12-09T20:57:33.964Z,73.60
2022-12-09T21:00:01.730Z,66.50
2022-12-09T21:02:29.491Z,71.30
2022-12-09T21:04:57.229Z,67.00
2022-12-09T21:07:25.150Z,64.00
2022-12-09T21:09:52.804Z,60.20
2022-12-09T21:12:20.487Z,63.60
2022-12-09T21:14:48.252Z,61.40
2022-12-09T21:17:15.952Z,64.30
2022-12-09T21:19:44.238Z,66.00
2022-12-09T21:22:11.918Z,66.30
2022-12-09T21:24:39.625Z,68.80
2022-12-09T21:27:07.314Z,81.60
2022-12-09T21:29:35.105Z,55.50
2022-12-09T21:32:02.890Z,60.40
2022-12-09T21:34:30.793Z,73.80
2022-12-09T21:36:58.697Z,46.60
2022-12-09T21:39:27.667Z,62.60
2022-12-09T21:41:55.505Z,72.10
2022-12-09T21:44:25.387Z,52.30
2022-12-09T21:46:53.647Z,66.90
2022-12-09T21:49:21.516Z,69.60
2022-12-09T21:51:49.265Z,42.70
2022-12-09T21:54:17.009Z,74.30
2022-12-09T21:56:44.766Z,61.40
2022-12-09T21:59:12.503Z,72.60
2022-12-09T22:01:41.409Z,50.30
2022-12-09T22:04:10.819Z,78.30
2022-12-09T22:06:38.906Z,65.40
2022-12-09T22:09:07.284Z,85.20
2022-12-09T22:11:36.006Z,47.50
2022-12-09T22:14:04.348Z,66.90
2022-12-09T22:16:33.628Z,65.10
2022-12-09T22:19:02.477Z,54.10
2022-12-09T22:21:31.639Z,86.40
2022-12-09T22:24:01.263Z,80.40
2022-12-09T22:26:29.247Z,90.30
2022-12-09T22:28:58.905Z,76.30
2022-12-09T22:31:28.088Z,75.40
2022-12-09T22:33:58.272Z,55.30
2022-12-09T22:36:26.113Z,57.00
2022-12-09T22:38:54.059Z,85.10
2022-12-09T22:41:23.455Z,64.30
2022-12-09T22:43:51.446Z,72.80
2022-12-09T22:46:21.731Z,79.30
2022-12-09T22:48:50.024Z,74.50
2022-12-09T22:51:19.504Z,85.90
2022-12-09T22:53:47.898Z,53.60
2022-12-09T22:56:15.799Z,70.90
2022-12-09T22:58:43.508Z,53.60
2022-12-09T23:01:15.399Z,64.70
2022-12-09T23:03:43.395Z,60.50
2022-12-09T23:06:11.149Z,79.70
2022-12-09T23:08:40.181Z,66.30
2022-12-09T23:11:09.173Z,42.50
2022-12-09T23:13:40.903Z,76.80
2022-12-09T23:16:12.515Z,79.70
2022-12-09T23:18:40.526Z,59.60
2022-12-09T23:21:18.259Z,78.80
2022-12-09T23:23:46.345Z,70.50
2022-12-09T23:26:15.575Z,78.30
2022-12-09T23:28:44.915Z,74.80
2022-12-09T23:31:13.675Z,72.60
2022-12-09T23:33:42.428Z,72.70
2022-12-09T23:36:17.822Z,69.90
2022-12-09T23:38:48.222Z,67.80
2022-12-09T23:41:17.457Z,66.90
2022-12-09T23:43:46.059Z,60.50
2022-12-09T23:46:16.210Z,66.70
2022-12-09T23:48:45.018Z,66.00
2022-12-09T23:51:14.367Z,64.80
2022-12-09T23:53:42.908Z,68.10
2022-12-09T23:56:12.103Z,68.50
2022-12-09T23:58:40.281Z,94.60
